Friday, November 21, 2014
16:37 UTC
  |  Log In   |  Register Free
Airport Search:

Corpus Christi International Airport
(KCRP)

FAA data valid effective November 13, 2014 - January 08, 2015 (unless otherwise noted).

 
 
 
 
 
 
 
 
 
 
 
 
 
 

Current Aviation Weather for Corpus Christi International Airport (KCRP)

The most recent METAR observation for KCRP was updated at: 1611
METAR Summary (Translated METAR)
KCRP
211551Z 18009KT 10SM FEW010 SCT023 BKN037 BKN200 23/20 A3009 RMK AO2 SLP189 T02280200
KRBO
211555Z AUTO 18008KT 5SM BR SCT017 BKN025 OVC041 22/21 A3010 RMK AO2 T02180209
(10.1 nm NW from KCRP)
KNGP
211556Z 15012KT 10SM FEW024 SCT035 SCT250 24/21 A3009 RMK AO2 SLP189 T02390206
(12.1 nm SE from KCRP)
TAF Summary (Translated TAF)
KCRP
211413Z 2114/2212 16008KT P6SM SCT022 OVC040 FM211600 15015G21KT P6SM VCSH SCT025 OVC040 TEMPO 2116/2120 5SM SHRA BR BKN025 OVC030 FM212000 15024G32KT P6SM SCT025 BKN040 FM220100 14015G21KT P6SM SCT025 BKN080 FM220800 13016KT P6SM BKN025 OVC050
KNGP
(12.1 nm SE from KCRP)
2115/2215 15010KT 9999 FEW015 BKN035 OVC050 QNH2997INS BECMG 2117/2119 16017G23KT 9999 VCSH FEW015 BKN035 OVC050 QNH2995INS TEMPO 2120/2123 15018G27KT 6000 -SHRA SCT010 BKN015 OVC035 BECMG 2123/2201 14015G22KT 9999 NSW SCT025 BKN040 OVC080 QNH2994INS BECMG 2205/2207 12015KT 9999 BKN025 BKN080 QNH2996INS T24/2121Z T20/2210Z FN20045
  Airport Weather Conditions for KCRP

 Current Weather at CRP
73° F
Mostly Cloudy
South winds at 10.4 mph
CRP NOAA Radar

Pressure: 30.09 in
Humidity: 84%
Wind: South at 10.4 MPH (9 KT)
Dew Point: 68.0°F
Visibility: 10.00 mi


Airport Weather Forecast for KCRP

Translated METAR and TAF for KCRP
Translated METAR for KCRP (1632 UTC 21 November 2014)
found at http://aviationweather.gov/adds/metars/
 
METAR text: KCRP 211611Z 17008KT 10SM FEW011 BKN020 BKN036 OVC200 23/20 A3009 RMK AO2 T02280200
Conditions at: KCRP (CORPUS CHRISTI , TX, US) observed 1611 UTC 21 November 2014
Temperature: 22.8°C (73°F)
Dewpoint: 20.0°C (68°F) [RH = 84%]
Pressure (altimeter): 30.09 inches Hg (1019.0 mb)
Winds: from the S (170 degrees) at 9 MPH (8 knots; 4.2 m/s)
Visibility: 10 or more miles (16+ km)
Ceiling: 2000 feet AGL
Clouds: few clouds at 1100 feet AGL
broken clouds at 2000 feet AGL
broken clouds at 3600 feet AGL
overcast cloud deck at 20000 feet AGL
Weather: no significant weather observed at this time
Translated TAF for KCRP
Forecast for: KCRP (CORPUS CHRISTI , TX, US)
TAF Text: KCRP 211413Z 2114/2212 16008KT P6SM SCT022 OVC040
Forecast period: 1400 to 1600 UTC 21 November 2014
Forecast type: FROM: standard forecast or significant change
Winds: from the SSE (160 degrees) at 9 MPH (8 knots; 4.2 m/s)
Visibility: 6 or more miles (10+ km)
Ceiling: 4000 feet AGL
Clouds: scattered clouds at 2200 feet AGL
overcast cloud deck at 4000 feet AGL
Weather: no significant weather forecast for this period
TAF Text: FM211600 15015G21KT P6SM VCSH SCT025 OVC040
Forecast period: 1600 to 2000 UTC 21 November 2014
Forecast type: FROM: standard forecast or significant change
Winds: from the SSE (150 degrees) at 17 MPH (15 knots; 7.8 m/s)
gusting to 24 MPH (21 knots; 10.9 m/s)
Visibility: 6 or more miles (10+ km)
Ceiling: 4000 feet AGL
Clouds: scattered clouds at 2500 feet AGL
overcast cloud deck at 4000 feet AGL
Weather: VCSH  (showers in vicinity)
TAF Text: TEMPO 2116/2120 5SM SHRA BR BKN025 OVC030
Forecast period: 1600 to 2000 UTC 21 November 2014
Forecast type: TEMPORARY: The following changes expected for less than half the time period
Visibility: 5 miles (8 km)
Ceiling: 2500 feet AGL
Clouds: broken clouds at 2500 feet AGL
overcast cloud deck at 3000 feet AGL
Weather: SHRA BR  (rain showers, mist)
TAF Text: FM212000 15024G32KT P6SM SCT025 BKN040
Forecast period: 2000 UTC 21 November 2014 to 0100 UTC 22 November 2014
Forecast type: FROM: standard forecast or significant change
Winds: from the SSE (150 degrees) at 28 MPH (24 knots; 12.5 m/s)
gusting to 37 MPH (32 knots; 16.6 m/s)
Visibility: 6 or more miles (10+ km)
Ceiling: 4000 feet AGL
Clouds: scattered clouds at 2500 feet AGL
broken clouds at 4000 feet AGL
Weather: no significant weather forecast for this period
TAF Text: FM220100 14015G21KT P6SM SCT025 BKN080
Forecast period: 0100 to 0800 UTC 22 November 2014
Forecast type: FROM: standard forecast or significant change
Winds: from the SE (140 degrees) at 17 MPH (15 knots; 7.8 m/s)
gusting to 24 MPH (21 knots; 10.9 m/s)
Visibility: 6 or more miles (10+ km)
Ceiling: 8000 feet AGL
Clouds: scattered clouds at 2500 feet AGL
broken clouds at 8000 feet AGL
Weather: no significant weather forecast for this period
TAF Text: FM220800 13016KT P6SM BKN025 OVC050
Forecast period: 0800 to 1200 UTC 22 November 2014
Forecast type: FROM: standard forecast or significant change
Winds: from the SE (130 degrees) at 18 MPH (16 knots; 8.3 m/s)
Visibility: 6 or more miles (10+ km)
Ceiling: 2500 feet AGL
Clouds: broken clouds at 2500 feet AGL
overcast cloud deck at 5000 feet AGL
Weather: no significant weather forecast for this period

Find All Airport Services Find A Hotel Find A Rental Car Find A Golf Course Find A Restaurant $100 Hamburger



FBO's on the Field
FBO Company Facility Photos Services Transportation Aviation Fuel Prices: Prices include tax
Catering Weather Repair Courtesy Rental Type 100LL JetA JetA+ MOGAS 8087
 
Atlantic Aviation

This FBO has not yet been rated
FS:Independent
Last Updated: Nov-20
Login to update fuel prices
SS:
Contact Atlantic AviationMore FBO Information
 
Signature Flight Support

This FBO has not yet been rated
FS:Avfuel
Last Updated: Nov-21
Login to update fuel prices
SS:
Contact Signature Flight SupportMore FBO Information
 
Add another FBO Facility Photos Catering Weather Repair Courtesy Rental Type 100LL JetA JetA+ MOGAS 8087
Services Transportation Aviation Fuel Prices: Prices include tax


model-print
model-print
model-print
model-print